createdAt,value
2022-10-18T00:05:37.286Z,80.67
2022-10-18T00:14:00.130Z,80.84
2022-10-18T00:22:23.091Z,81.03
2022-10-18T00:30:45.763Z,81.69
2022-10-18T00:39:10.939Z,81.74
2022-10-18T00:47:35.572Z,82.49
2022-10-18T00:55:58.268Z,82.50
2022-10-18T01:04:22.157Z,82.97
2022-10-18T01:13:05.761Z,83.81
2022-10-18T01:21:57.917Z,84.03
2022-10-18T01:30:48.247Z,83.97
2022-10-18T01:39:20.449Z,85.23
2022-10-18T01:47:45.333Z,85.29
2022-10-18T01:56:20.786Z,85.34
2022-10-18T02:04:52.610Z,85.35
2022-10-18T02:13:20.705Z,84.94
2022-10-18T02:21:46.199Z,84.86
2022-10-18T02:30:09.976Z,84.56
2022-10-18T02:38:34.503Z,85.04
2022-10-18T02:46:57.222Z,84.90
2022-10-18T02:55:20.196Z,85.95
2022-10-18T03:03:42.888Z,86.63
2022-10-18T03:12:05.901Z,87.48
2022-10-18T03:20:28.620Z,86.98
2022-10-18T03:28:51.553Z,86.76
2022-10-18T03:37:14.233Z,87.54
2022-10-18T03:45:36.971Z,88.11
2022-10-18T03:53:59.923Z,87.67
2022-10-18T04:02:23.201Z,87.43
2022-10-18T04:10:46.188Z,86.56
2022-10-18T04:19:08.981Z,86.11
2022-10-18T04:27:31.916Z,86.48
2022-10-18T04:35:55.050Z,86.46
2022-10-18T04:44:17.685Z,86.37
2022-10-18T04:52:40.409Z,86.42
2022-10-18T05:01:07.082Z,86.88
2022-10-18T05:09:29.847Z,86.73
2022-10-18T05:17:52.490Z,86.78
2022-10-18T05:26:15.268Z,87.92
2022-10-18T05:34:37.951Z,87.24
2022-10-18T05:43:00.766Z,86.87
2022-10-18T05:51:23.732Z,86.38
2022-10-18T05:59:47.193Z,85.85
2022-10-18T06:08:10.378Z,85.36
2022-10-18T06:16:33.298Z,85.04
2022-10-18T06:24:57.268Z,84.84
2022-10-18T06:33:20.203Z,84.72
2022-10-18T06:41:42.851Z,84.56
2022-10-18T06:50:14.795Z,83.96
2022-10-18T06:58:37.749Z,83.68
2022-10-18T07:07:00.396Z,83.11
2022-10-18T07:15:24.246Z,81.50
2022-10-18T07:23:47.823Z,80.34
2022-10-18T07:32:10.486Z,77.39
2022-10-18T07:40:33.434Z,77.24
2022-10-18T07:48:56.317Z,77.04
2022-10-18T07:57:18.940Z,75.94
2022-10-18T08:05:41.647Z,74.24
2022-10-18T08:14:04.542Z,73.19
2022-10-18T08:22:27.317Z,69.49
2022-10-18T08:30:49.945Z,68.68
2022-10-18T08:39:12.611Z,66.80
2022-10-18T08:47:39.201Z,65.68
2022-10-18T08:56:11.200Z,63.38
2022-10-18T09:04:59.561Z,62.77
2022-10-18T09:13:50.196Z,62.12
2022-10-18T09:22:16.367Z,61.92
2022-10-18T09:30:59.571Z,62.51
2022-10-18T09:39:28.439Z,61.25
2022-10-18T09:48:11.405Z,58.73
2022-10-18T09:57:01.249Z,58.65
2022-10-18T10:05:24.149Z,57.66
2022-10-18T10:13:48.624Z,57.94
2022-10-18T10:22:14.415Z,56.32
2022-10-18T10:30:38.553Z,56.25
2022-10-18T10:39:12.523Z,56.31
2022-10-18T10:47:37.014Z,55.55
2022-10-18T10:56:00.734Z,53.03
2022-10-18T11:04:28.959Z,46.45
2022-10-18T11:13:50.028Z,39.49
2022-10-18T11:22:21.971Z,33.48
2022-10-18T11:30:47.762Z,31.43
2022-10-18T11:39:42.961Z,30.22
2022-10-18T11:48:37.945Z,28.49
2022-10-18T11:57:15.629Z,28.88
2022-10-18T12:05:41.516Z,29.80
2022-10-18T12:14:14.174Z,30.65
2022-10-18T12:22:52.629Z,34.50
2022-10-18T12:31:20.829Z,36.80
2022-10-18T12:40:09.448Z,35.94
2022-10-18T12:48:33.422Z,38.62
2022-10-18T12:56:56.932Z,41.44
2022-10-18T13:05:56.203Z,42.96
2022-10-18T13:14:32.090Z,43.33
2022-10-18T13:23:01.134Z,43.03
2022-10-18T13:31:35.838Z,44.74
2022-10-18T13:40:24.921Z,45.53
2022-10-18T13:48:49.250Z,44.62
2022-10-18T13:57:15.054Z,46.15
2022-10-18T14:05:37.707Z,48.03
2022-10-18T14:14:12.652Z,49.57
2022-10-18T14:22:44.854Z,51.34
2022-10-18T14:31:14.237Z,53.77
2022-10-18T14:39:38.734Z,55.40
2022-10-18T14:48:13.308Z,56.76
2022-10-18T14:56:41.688Z,58.54
2022-10-18T15:05:09.097Z,59.36
2022-10-18T15:13:34.301Z,61.45
2022-10-18T15:22:30.172Z,63.11
2022-10-18T15:30:43.185Z,64.07
2022-10-18T15:39:20.787Z,64.19
2022-10-18T15:48:06.022Z,65.69
2022-10-18T15:56:33.160Z,67.11
2022-10-18T16:04:58.085Z,67.60
2022-10-18T16:13:21.120Z,68.23
2022-10-18T16:21:44.491Z,68.23
2022-10-18T16:30:18.568Z,68.89
2022-10-18T16:38:41.553Z,69.94
2022-10-18T16:47:04.308Z,70.99
2022-10-18T16:55:27.333Z,71.08
2022-10-18T17:03:53.900Z,71.01
2022-10-18T17:12:16.830Z,71.78
2022-10-18T17:20:40.341Z,75.60
2022-10-18T17:29:08.440Z,80.98
2022-10-18T17:37:31.763Z,84.11
2022-10-18T17:45:56.480Z,87.47
2022-10-18T17:54:19.312Z,89.56
2022-10-18T18:02:42.634Z,89.88
2022-10-18T18:11:05.803Z,90.83
2022-10-18T18:19:28.638Z,91.72
2022-10-18T18:27:51.426Z,92.60
2022-10-18T18:36:14.274Z,92.98
2022-10-18T18:44:37.643Z,95.90
2022-10-18T18:53:00.430Z,96.01
2022-10-18T19:01:25.465Z,95.69
2022-10-18T19:09:50.584Z,95.93
2022-10-18T19:18:13.466Z,94.63
2022-10-18T19:26:49.876Z,94.03
2022-10-18T19:35:12.646Z,93.33
2022-10-18T19:43:36.054Z,92.29
2022-10-18T19:51:58.962Z,93.14
2022-10-18T20:00:21.821Z,93.21
2022-10-18T20:08:44.950Z,93.76
2022-10-18T20:17:12.100Z,92.61
2022-10-18T20:25:34.828Z,93.34
2022-10-18T20:34:00.579Z,95.32
2022-10-18T20:42:23.544Z,95.87
2022-10-18T20:50:46.274Z,96.07
2022-10-18T20:59:10.251Z,94.85
2022-10-18T21:07:33.266Z,94.22
2022-10-18T21:15:57.426Z,94.60
2022-10-18T21:24:21.710Z,94.47
2022-10-18T21:32:44.386Z,96.31
2022-10-18T21:41:09.813Z,97.34
2022-10-18T21:49:35.186Z,98.26
2022-10-18T21:57:58.686Z,98.34
2022-10-18T22:06:22.363Z,98.91
2022-10-18T22:14:45.081Z,99.57
2022-10-18T22:23:07.891Z,99.83
2022-10-18T22:31:33.561Z,99.95
2022-10-18T22:39:56.241Z,100.00
2022-10-18T22:48:18.939Z,100.00
2022-10-18T22:56:41.760Z,100.00
2022-10-18T23:05:04.702Z,100.00
2022-10-18T23:13:28.328Z,100.00
2022-10-18T23:21:50.992Z,100.00
2022-10-18T23:30:13.660Z,100.00
2022-10-18T23:38:38.145Z,99.99
2022-10-18T23:47:00.909Z,99.84
2022-10-18T23:55:23.718Z,99.96
